sensor_id;sensor_type;location;lat;lon;timestamp;P1;durP1;ratioP1;P2;durP2;ratioP2
34783;SDS011;20998;51.388;7.032;2024-02-26T00:02:24;1.00;;;0.90;;
34783;SDS011;20998;51.388;7.032;2024-02-26T00:04:50;1.83;;;1.10;;
34783;SDS011;20998;51.388;7.032;2024-02-26T00:07:16;5.60;;;0.90;;
34783;SDS011;20998;51.388;7.032;2024-02-26T00:09:42;0.63;;;0.63;;
34783;SDS011;20998;51.388;7.032;2024-02-26T00:12:08;0.67;;;0.67;;
34783;SDS011;20998;51.388;7.032;2024-02-26T00:14:34;1.30;;;1.00;;
34783;SDS011;20998;51.388;7.032;2024-02-26T00:17:00;0.60;;;0.60;;
34783;SDS011;20998;51.388;7.032;2024-02-26T00:19:26;0.87;;;0.80;;
34783;SDS011;20998;51.388;7.032;2024-02-26T00:21:52;0.57;;;0.57;;
34783;SDS011;20998;51.388;7.032;2024-02-26T00:24:21;1.37;;;1.00;;
34783;SDS011;20998;51.388;7.032;2024-02-26T00:26:47;4.10;;;1.17;;
34783;SDS011;20998;51.388;7.032;2024-02-26T00:29:18;0.80;;;0.80;;
34783;SDS011;20998;51.388;7.032;2024-02-26T00:31:44;1.27;;;0.60;;
34783;SDS011;20998;51.388;7.032;2024-02-26T00:34:10;0.70;;;0.67;;
34783;SDS011;20998;51.388;7.032;2024-02-26T00:36:36;1.07;;;0.90;;
34783;SDS011;20998;51.388;7.032;2024-02-26T00:39:02;0.93;;;0.67;;
34783;SDS011;20998;51.388;7.032;2024-02-26T00:41:28;0.57;;;0.50;;
34783;SDS011;20998;51.388;7.032;2024-02-26T00:43:54;0.90;;;0.80;;
34783;SDS011;20998;51.388;7.032;2024-02-26T00:46:20;0.60;;;0.60;;
34783;SDS011;20998;51.388;7.032;2024-02-26T00:48:46;0.70;;;0.63;;
34783;SDS011;20998;51.388;7.032;2024-02-26T00:51:12;1.13;;;0.60;;
34783;SDS011;20998;51.388;7.032;2024-02-26T00:53:38;1.50;;;0.73;;
34783;SDS011;20998;51.388;7.032;2024-02-26T00:56:04;0.80;;;0.60;;
34783;SDS011;20998;51.388;7.032;2024-02-26T00:58:31;0.97;;;0.73;;
34783;SDS011;20998;51.388;7.032;2024-02-26T01:00:57;0.40;;;0.40;;
34783;SDS011;20998;51.388;7.032;2024-02-26T01:03:24;0.93;;;0.80;;
34783;SDS011;20998;51.388;7.032;2024-02-26T01:05:50;0.50;;;0.50;;
34783;SDS011;20998;51.388;7.032;2024-02-26T01:08:16;0.73;;;0.70;;
34783;SDS011;20998;51.388;7.032;2024-02-26T01:10:42;0.43;;;0.43;;
34783;SDS011;20998;51.388;7.032;2024-02-26T01:13:08;0.70;;;0.70;;
34783;SDS011;20998;51.388;7.032;2024-02-26T01:15:33;1.70;;;0.90;;
34783;SDS011;20998;51.388;7.032;2024-02-26T01:17:59;0.77;;;0.70;;
34783;SDS011;20998;51.388;7.032;2024-02-26T01:20:25;1.00;;;0.90;;
34783;SDS011;20998;51.388;7.032;2024-02-26T01:22:51;0.80;;;0.80;;
34783;SDS011;20998;51.388;7.032;2024-02-26T01:25:17;1.33;;;0.87;;
34783;SDS011;20998;51.388;7.032;2024-02-26T01:27:43;0.53;;;0.53;;
34783;SDS011;20998;51.388;7.032;2024-02-26T01:30:10;0.70;;;0.70;;
34783;SDS011;20998;51.388;7.032;2024-02-26T01:32:35;2.77;;;1.00;;
34783;SDS011;20998;51.388;7.032;2024-02-26T01:35:02;2.73;;;0.90;;
34783;SDS011;20998;51.388;7.032;2024-02-26T01:37:35;0.70;;;0.63;;
34783;SDS011;20998;51.388;7.032;2024-02-26T01:40:01;1.50;;;0.93;;
34783;SDS011;20998;51.388;7.032;2024-02-26T01:42:29;0.73;;;0.73;;
34783;SDS011;20998;51.388;7.032;2024-02-26T01:44:55;1.80;;;0.80;;
34783;SDS011;20998;51.388;7.032;2024-02-26T01:47:21;0.97;;;0.60;;
34783;SDS011;20998;51.388;7.032;2024-02-26T01:49:48;0.40;;;0.40;;
34783;SDS011;20998;51.388;7.032;2024-02-26T01:52:14;1.60;;;0.83;;
34783;SDS011;20998;51.388;7.032;2024-02-26T01:54:40;0.67;;;0.67;;
34783;SDS011;20998;51.388;7.032;2024-02-26T01:57:09;0.63;;;0.60;;
34783;SDS011;20998;51.388;7.032;2024-02-26T01:59:35;0.50;;;0.50;;
34783;SDS011;20998;51.388;7.032;2024-02-26T02:02:03;3.23;;;0.80;;
34783;SDS011;20998;51.388;7.032;2024-02-26T02:04:32;0.50;;;0.50;;
34783;SDS011;20998;51.388;7.032;2024-02-26T02:06:58;1.23;;;0.63;;
34783;SDS011;20998;51.388;7.032;2024-02-26T02:09:27;0.60;;;0.50;;
34783;SDS011;20998;51.388;7.032;2024-02-26T02:11:53;1.30;;;1.00;;
34783;SDS011;20998;51.388;7.032;2024-02-26T02:14:19;2.63;;;1.03;;
34783;SDS011;20998;51.388;7.032;2024-02-26T02:16:45;1.10;;;0.80;;
34783;SDS011;20998;51.388;7.032;2024-02-26T02:19:12;0.80;;;0.80;;
34783;SDS011;20998;51.388;7.032;2024-02-26T02:21:38;1.17;;;0.90;;
34783;SDS011;20998;51.388;7.032;2024-02-26T02:24:04;0.63;;;0.63;;
34783;SDS011;20998;51.388;7.032;2024-02-26T02:26:30;1.60;;;0.60;;
34783;SDS011;20998;51.388;7.032;2024-02-26T02:28:56;0.47;;;0.43;;
34783;SDS011;20998;51.388;7.032;2024-02-26T02:31:22;1.23;;;0.97;;
34783;SDS011;20998;51.388;7.032;2024-02-26T02:33:48;0.40;;;0.40;;
34783;SDS011;20998;51.388;7.032;2024-02-26T02:36:14;5.57;;;1.30;;
34783;SDS011;20998;51.388;7.032;2024-02-26T02:38:49;1.13;;;0.77;;
34783;SDS011;20998;51.388;7.032;2024-02-26T02:41:16;0.70;;;0.70;;
34783;SDS011;20998;51.388;7.032;2024-02-26T02:43:42;0.53;;;0.53;;
34783;SDS011;20998;51.388;7.032;2024-02-26T02:46:08;0.67;;;0.67;;
34783;SDS011;20998;51.388;7.032;2024-02-26T02:48:33;0.53;;;0.53;;
34783;SDS011;20998;51.388;7.032;2024-02-26T02:50:59;1.07;;;0.40;;
34783;SDS011;20998;51.388;7.032;2024-02-26T02:53:25;0.77;;;0.70;;
34783;SDS011;20998;51.388;7.032;2024-02-26T02:55:51;0.87;;;0.70;;
34783;SDS011;20998;51.388;7.032;2024-02-26T02:58:17;3.43;;;0.90;;
34783;SDS011;20998;51.388;7.032;2024-02-26T03:00:42;0.70;;;0.63;;
34783;SDS011;20998;51.388;7.032;2024-02-26T03:03:08;1.53;;;0.70;;
34783;SDS011;20998;51.388;7.032;2024-02-26T03:05:34;1.23;;;0.67;;
34783;SDS011;20998;51.388;7.032;2024-02-26T03:08:00;1.27;;;0.80;;
34783;SDS011;20998;51.388;7.032;2024-02-26T03:10:26;0.80;;;0.80;;
34783;SDS011;20998;51.388;7.032;2024-02-26T03:12:53;1.53;;;1.10;;
34783;SDS011;20998;51.388;7.032;2024-02-26T03:15:19;0.77;;;0.77;;
34783;SDS011;20998;51.388;7.032;2024-02-26T03:17:45;1.10;;;0.80;;
34783;SDS011;20998;51.388;7.032;2024-02-26T03:20:11;5.30;;;1.67;;
34783;SDS011;20998;51.388;7.032;2024-02-26T03:22:38;0.60;;;0.60;;
34783;SDS011;20998;51.388;7.032;2024-02-26T03:25:04;0.90;;;0.60;;
34783;SDS011;20998;51.388;7.032;2024-02-26T03:27:31;1.70;;;1.10;;
34783;SDS011;20998;51.388;7.032;2024-02-26T03:29:57;0.70;;;0.70;;
34783;SDS011;20998;51.388;7.032;2024-02-26T03:32:23;1.33;;;1.00;;
34783;SDS011;20998;51.388;7.032;2024-02-26T03:34:48;0.60;;;0.60;;
34783;SDS011;20998;51.388;7.032;2024-02-26T03:37:14;0.80;;;0.77;;
34783;SDS011;20998;51.388;7.032;2024-02-26T03:39:40;1.27;;;0.93;;
34783;SDS011;20998;51.388;7.032;2024-02-26T03:42:06;0.80;;;0.80;;
34783;SDS011;20998;51.388;7.032;2024-02-26T03:44:32;1.23;;;0.80;;
34783;SDS011;20998;51.388;7.032;2024-02-26T03:46:58;1.43;;;0.70;;
34783;SDS011;20998;51.388;7.032;2024-02-26T03:49:24;0.80;;;0.80;;
34783;SDS011;20998;51.388;7.032;2024-02-26T03:51:50;0.73;;;0.70;;
34783;SDS011;20998;51.388;7.032;2024-02-26T03:54:16;5.93;;;0.90;;
34783;SDS011;20998;51.388;7.032;2024-02-26T03:56:42;0.80;;;0.80;;
34783;SDS011;20998;51.388;7.032;2024-02-26T03:59:08;0.63;;;0.60;;
34783;SDS011;20998;51.388;7.032;2024-02-26T04:01:34;0.97;;;0.87;;
34783;SDS011;20998;51.388;7.032;2024-02-26T04:04:00;0.80;;;0.70;;
34783;SDS011;20998;51.388;7.032;2024-02-26T04:06:26;0.90;;;0.90;;
34783;SDS011;20998;51.388;7.032;2024-02-26T04:08:52;1.60;;;1.10;;
34783;SDS011;20998;51.388;7.032;2024-02-26T04:11:18;1.23;;;1.10;;
34783;SDS011;20998;51.388;7.032;2024-02-26T04:13:45;0.93;;;0.67;;
34783;SDS011;20998;51.388;7.032;2024-02-26T04:16:14;0.70;;;0.70;;
34783;SDS011;20998;51.388;7.032;2024-02-26T04:18:40;1.13;;;0.70;;
34783;SDS011;20998;51.388;7.032;2024-02-26T04:21:06;0.93;;;0.90;;
34783;SDS011;20998;51.388;7.032;2024-02-26T04:23:32;0.80;;;0.67;;
34783;SDS011;20998;51.388;7.032;2024-02-26T04:25:58;0.97;;;0.87;;
34783;SDS011;20998;51.388;7.032;2024-02-26T04:28:24;1.17;;;1.07;;
34783;SDS011;20998;51.388;7.032;2024-02-26T04:30:51;1.00;;;0.90;;
34783;SDS011;20998;51.388;7.032;2024-02-26T04:33:17;2.90;;;1.60;;
34783;SDS011;20998;51.388;7.032;2024-02-26T04:35:43;2.30;;;1.37;;
34783;SDS011;20998;51.388;7.032;2024-02-26T04:38:09;1.70;;;1.10;;
34783;SDS011;20998;51.388;7.032;2024-02-26T04:40:35;2.73;;;1.20;;
34783;SDS011;20998;51.388;7.032;2024-02-26T04:43:01;1.00;;;0.90;;
34783;SDS011;20998;51.388;7.032;2024-02-26T04:45:27;0.87;;;0.70;;
34783;SDS011;20998;51.388;7.032;2024-02-26T04:47:54;0.97;;;0.90;;
34783;SDS011;20998;51.388;7.032;2024-02-26T04:50:20;1.40;;;0.83;;
34783;SDS011;20998;51.388;7.032;2024-02-26T04:52:46;1.27;;;0.90;;
34783;SDS011;20998;51.388;7.032;2024-02-26T04:55:12;1.10;;;0.90;;
34783;SDS011;20998;51.388;7.032;2024-02-26T04:57:38;1.40;;;1.13;;
34783;SDS011;20998;51.388;7.032;2024-02-26T05:00:04;1.03;;;0.83;;
34783;SDS011;20998;51.388;7.032;2024-02-26T05:02:30;1.40;;;0.80;;
34783;SDS011;20998;51.388;7.032;2024-02-26T05:04:58;3.70;;;1.13;;
34783;SDS011;20998;51.388;7.032;2024-02-26T05:07:24;0.83;;;0.77;;
34783;SDS011;20998;51.388;7.032;2024-02-26T05:09:50;5.30;;;0.93;;
34783;SDS011;20998;51.388;7.032;2024-02-26T05:12:17;1.50;;;1.00;;
34783;SDS011;20998;51.388;7.032;2024-02-26T05:14:43;1.90;;;1.23;;
34783;SDS011;20998;51.388;7.032;2024-02-26T05:17:09;3.93;;;0.90;;
34783;SDS011;20998;51.388;7.032;2024-02-26T05:19:34;0.77;;;0.73;;
34783;SDS011;20998;51.388;7.032;2024-02-26T05:22:00;3.30;;;1.30;;
34783;SDS011;20998;51.388;7.032;2024-02-26T05:24:26;2.40;;;1.30;;
34783;SDS011;20998;51.388;7.032;2024-02-26T05:26:53;2.00;;;1.30;;
34783;SDS011;20998;51.388;7.032;2024-02-26T05:29:20;0.50;;;0.50;;
34783;SDS011;20998;51.388;7.032;2024-02-26T05:31:45;0.83;;;0.83;;
34783;SDS011;20998;51.388;7.032;2024-02-26T05:34:11;1.77;;;1.20;;
34783;SDS011;20998;51.388;7.032;2024-02-26T05:36:37;1.43;;;1.10;;
34783;SDS011;20998;51.388;7.032;2024-02-26T05:39:04;3.60;;;1.53;;
34783;SDS011;20998;51.388;7.032;2024-02-26T05:41:30;1.37;;;1.27;;
34783;SDS011;20998;51.388;7.032;2024-02-26T05:43:56;2.07;;;1.23;;
34783;SDS011;20998;51.388;7.032;2024-02-26T05:46:22;1.17;;;0.87;;
34783;SDS011;20998;51.388;7.032;2024-02-26T05:48:48;0.63;;;0.63;;
34783;SDS011;20998;51.388;7.032;2024-02-26T05:51:15;2.17;;;1.20;;
34783;SDS011;20998;51.388;7.032;2024-02-26T05:53:41;1.47;;;0.90;;
34783;SDS011;20998;51.388;7.032;2024-02-26T05:56:07;1.20;;;1.10;;
34783;SDS011;20998;51.388;7.032;2024-02-26T05:58:33;1.47;;;0.90;;
34783;SDS011;20998;51.388;7.032;2024-02-26T06:00:59;1.20;;;1.10;;
34783;SDS011;20998;51.388;7.032;2024-02-26T06:03:26;0.83;;;0.83;;
34783;SDS011;20998;51.388;7.032;2024-02-26T06:05:53;2.10;;;1.13;;
34783;SDS011;20998;51.388;7.032;2024-02-26T06:08:19;2.00;;;1.20;;
34783;SDS011;20998;51.388;7.032;2024-02-26T06:10:45;0.90;;;0.87;;
34783;SDS011;20998;51.388;7.032;2024-02-26T06:13:11;2.33;;;0.90;;
34783;SDS011;20998;51.388;7.032;2024-02-26T06:15:37;2.27;;;0.90;;
34783;SDS011;20998;51.388;7.032;2024-02-26T06:18:03;0.87;;;0.73;;
34783;SDS011;20998;51.388;7.032;2024-02-26T06:20:29;1.10;;;0.93;;
34783;SDS011;20998;51.388;7.032;2024-02-26T06:22:55;5.97;;;1.67;;
34783;SDS011;20998;51.388;7.032;2024-02-26T06:25:20;3.30;;;0.97;;
34783;SDS011;20998;51.388;7.032;2024-02-26T06:27:46;1.97;;;1.00;;
34783;SDS011;20998;51.388;7.032;2024-02-26T06:30:12;1.00;;;0.97;;
34783;SDS011;20998;51.388;7.032;2024-02-26T06:32:38;2.37;;;1.27;;
34783;SDS011;20998;51.388;7.032;2024-02-26T06:35:05;1.60;;;0.90;;
34783;SDS011;20998;51.388;7.032;2024-02-26T06:37:33;1.10;;;0.97;;
34783;SDS011;20998;51.388;7.032;2024-02-26T06:39:59;1.63;;;0.90;;
34783;SDS011;20998;51.388;7.032;2024-02-26T06:42:25;1.83;;;1.10;;
34783;SDS011;20998;51.388;7.032;2024-02-26T06:44:51;2.60;;;1.07;;
34783;SDS011;20998;51.388;7.032;2024-02-26T06:47:17;1.03;;;0.90;;
34783;SDS011;20998;51.388;7.032;2024-02-26T06:49:44;2.13;;;1.00;;
34783;SDS011;20998;51.388;7.032;2024-02-26T06:52:10;3.60;;;1.00;;
34783;SDS011;20998;51.388;7.032;2024-02-26T06:54:36;0.60;;;0.60;;
34783;SDS011;20998;51.388;7.032;2024-02-26T06:57:02;0.87;;;0.87;;
34783;SDS011;20998;51.388;7.032;2024-02-26T06:59:28;0.63;;;0.63;;
34783;SDS011;20998;51.388;7.032;2024-02-26T07:01:54;0.70;;;0.70;;
34783;SDS011;20998;51.388;7.032;2024-02-26T07:04:19;3.13;;;1.83;;
34783;SDS011;20998;51.388;7.032;2024-02-26T07:06:46;7.83;;;1.57;;
34783;SDS011;20998;51.388;7.032;2024-02-26T07:09:12;0.70;;;0.70;;
34783;SDS011;20998;51.388;7.032;2024-02-26T07:11:38;6.90;;;1.37;;
34783;SDS011;20998;51.388;7.032;2024-02-26T07:14:07;1.13;;;0.97;;
34783;SDS011;20998;51.388;7.032;2024-02-26T07:16:37;1.17;;;0.90;;
34783;SDS011;20998;51.388;7.032;2024-02-26T07:19:03;0.60;;;0.60;;
34783;SDS011;20998;51.388;7.032;2024-02-26T07:21:29;0.70;;;0.60;;
34783;SDS011;20998;51.388;7.032;2024-02-26T07:23:55;0.90;;;0.83;;
34783;SDS011;20998;51.388;7.032;2024-02-26T07:26:21;0.93;;;0.83;;
34783;SDS011;20998;51.388;7.032;2024-02-26T07:28:49;1.20;;;0.90;;
34783;SDS011;20998;51.388;7.032;2024-02-26T07:31:15;1.73;;;1.20;;
34783;SDS011;20998;51.388;7.032;2024-02-26T07:33:41;1.07;;;0.80;;
34783;SDS011;20998;51.388;7.032;2024-02-26T07:36:07;2.57;;;1.63;;
34783;SDS011;20998;51.388;7.032;2024-02-26T07:38:33;0.73;;;0.73;;
34783;SDS011;20998;51.388;7.032;2024-02-26T07:40:59;0.97;;;0.90;;
34783;SDS011;20998;51.388;7.032;2024-02-26T07:43:26;10.77;;;1.07;;
34783;SDS011;20998;51.388;7.032;2024-02-26T07:45:52;3.03;;;1.23;;
34783;SDS011;20998;51.388;7.032;2024-02-26T07:48:18;1.37;;;1.17;;
34783;SDS011;20998;51.388;7.032;2024-02-26T07:50:44;2.33;;;1.50;;
34783;SDS011;20998;51.388;7.032;2024-02-26T07:53:10;1.30;;;1.17;;
34783;SDS011;20998;51.388;7.032;2024-02-26T07:55:36;1.37;;;0.97;;
34783;SDS011;20998;51.388;7.032;2024-02-26T07:58:02;1.20;;;1.10;;
34783;SDS011;20998;51.388;7.032;2024-02-26T08:00:28;1.80;;;1.23;;
34783;SDS011;20998;51.388;7.032;2024-02-26T08:02:54;4.30;;;1.10;;
34783;SDS011;20998;51.388;7.032;2024-02-26T08:05:20;1.43;;;0.93;;
34783;SDS011;20998;51.388;7.032;2024-02-26T08:07:46;1.13;;;1.03;;
34783;SDS011;20998;51.388;7.032;2024-02-26T08:10:12;1.50;;;1.10;;
34783;SDS011;20998;51.388;7.032;2024-02-26T08:12:38;1.23;;;0.83;;
34783;SDS011;20998;51.388;7.032;2024-02-26T08:15:04;2.53;;;0.80;;
34783;SDS011;20998;51.388;7.032;2024-02-26T08:17:30;2.77;;;1.73;;
34783;SDS011;20998;51.388;7.032;2024-02-26T08:19:57;1.73;;;1.23;;
34783;SDS011;20998;51.388;7.032;2024-02-26T08:22:23;1.00;;;0.90;;
34783;SDS011;20998;51.388;7.032;2024-02-26T08:24:49;0.90;;;0.90;;
34783;SDS011;20998;51.388;7.032;2024-02-26T08:27:15;1.00;;;0.90;;
34783;SDS011;20998;51.388;7.032;2024-02-26T08:29:42;1.87;;;1.40;;
34783;SDS011;20998;51.388;7.032;2024-02-26T08:32:08;0.73;;;0.73;;
34783;SDS011;20998;51.388;7.032;2024-02-26T08:34:34;1.33;;;1.07;;
34783;SDS011;20998;51.388;7.032;2024-02-26T08:37:00;1.20;;;1.07;;
34783;SDS011;20998;51.388;7.032;2024-02-26T08:39:26;2.27;;;1.40;;
34783;SDS011;20998;51.388;7.032;2024-02-26T08:41:52;0.70;;;0.70;;
34783;SDS011;20998;51.388;7.032;2024-02-26T08:44:18;1.23;;;1.07;;
34783;SDS011;20998;51.388;7.032;2024-02-26T08:46:44;1.10;;;1.10;;
34783;SDS011;20998;51.388;7.032;2024-02-26T08:49:10;1.83;;;1.10;;
34783;SDS011;20998;51.388;7.032;2024-02-26T08:51:41;1.50;;;0.80;;
34783;SDS011;20998;51.388;7.032;2024-02-26T08:54:08;0.73;;;0.73;;
34783;SDS011;20998;51.388;7.032;2024-02-26T08:56:34;1.83;;;1.40;;
34783;SDS011;20998;51.388;7.032;2024-02-26T08:59:00;0.97;;;0.87;;
34783;SDS011;20998;51.388;7.032;2024-02-26T09:01:28;1.47;;;1.20;;
34783;SDS011;20998;51.388;7.032;2024-02-26T09:03:54;1.70;;;1.03;;
34783;SDS011;20998;51.388;7.032;2024-02-26T09:06:21;0.87;;;0.80;;
34783;SDS011;20998;51.388;7.032;2024-02-26T09:08:47;2.13;;;1.03;;
34783;SDS011;20998;51.388;7.032;2024-02-26T09:11:13;3.17;;;1.40;;
34783;SDS011;20998;51.388;7.032;2024-02-26T09:13:39;1.23;;;1.00;;
34783;SDS011;20998;51.388;7.032;2024-02-26T09:16:05;1.10;;;1.00;;
34783;SDS011;20998;51.388;7.032;2024-02-26T09:18:31;0.80;;;0.80;;
34783;SDS011;20998;51.388;7.032;2024-02-26T09:20:57;6.33;;;0.90;;
34783;SDS011;20998;51.388;7.032;2024-02-26T09:23:23;2.07;;;1.20;;
34783;SDS011;20998;51.388;7.032;2024-02-26T09:25:49;1.13;;;1.03;;
34783;SDS011;20998;51.388;7.032;2024-02-26T09:28:15;2.57;;;1.13;;
34783;SDS011;20998;51.388;7.032;2024-02-26T09:30:42;1.50;;;0.90;;
34783;SDS011;20998;51.388;7.032;2024-02-26T09:33:09;2.60;;;1.43;;
34783;SDS011;20998;51.388;7.032;2024-02-26T09:35:35;1.67;;;1.20;;
34783;SDS011;20998;51.388;7.032;2024-02-26T09:38:00;5.70;;;1.27;;
34783;SDS011;20998;51.388;7.032;2024-02-26T09:40:27;1.30;;;1.17;;
34783;SDS011;20998;51.388;7.032;2024-02-26T09:42:55;1.40;;;1.23;;
34783;SDS011;20998;51.388;7.032;2024-02-26T09:45:25;1.30;;;1.13;;
34783;SDS011;20998;51.388;7.032;2024-02-26T09:47:52;1.87;;;1.67;;
34783;SDS011;20998;51.388;7.032;2024-02-26T09:50:20;1.30;;;1.20;;
34783;SDS011;20998;51.388;7.032;2024-02-26T09:52:47;1.97;;;1.50;;
34783;SDS011;20998;51.388;7.032;2024-02-26T09:55:13;2.53;;;1.80;;
34783;SDS011;20998;51.388;7.032;2024-02-26T09:57:41;1.70;;;1.20;;
34783;SDS011;20998;51.388;7.032;2024-02-26T10:00:11;1.80;;;1.37;;
34783;SDS011;20998;51.388;7.032;2024-02-26T10:02:40;1.97;;;1.30;;
34783;SDS011;20998;51.388;7.032;2024-02-26T10:05:07;3.63;;;1.30;;
34783;SDS011;20998;51.388;7.032;2024-02-26T10:07:35;4.07;;;2.10;;
34783;SDS011;20998;51.388;7.032;2024-02-26T10:10:01;1.53;;;0.97;;
34783;SDS011;20998;51.388;7.032;2024-02-26T10:12:27;1.83;;;1.47;;
34783;SDS011;20998;51.388;7.032;2024-02-26T10:14:54;1.30;;;0.97;;
34783;SDS011;20998;51.388;7.032;2024-02-26T10:17:20;1.20;;;1.10;;
34783;SDS011;20998;51.388;7.032;2024-02-26T10:19:46;2.23;;;1.77;;
34783;SDS011;20998;51.388;7.032;2024-02-26T10:22:12;1.87;;;1.30;;
34783;SDS011;20998;51.388;7.032;2024-02-26T10:24:38;3.77;;;1.13;;
34783;SDS011;20998;51.388;7.032;2024-02-26T10:27:04;2.10;;;1.20;;
34783;SDS011;20998;51.388;7.032;2024-02-26T10:29:30;3.40;;;1.60;;
34783;SDS011;20998;51.388;7.032;2024-02-26T10:31:56;1.40;;;1.30;;
34783;SDS011;20998;51.388;7.032;2024-02-26T10:34:22;1.47;;;1.23;;
34783;SDS011;20998;51.388;7.032;2024-02-26T10:36:49;2.20;;;1.70;;
34783;SDS011;20998;51.388;7.032;2024-02-26T10:39:15;2.83;;;1.57;;
34783;SDS011;20998;51.388;7.032;2024-02-26T10:41:41;1.63;;;1.43;;
34783;SDS011;20998;51.388;7.032;2024-02-26T10:44:11;2.23;;;1.47;;
34783;SDS011;20998;51.388;7.032;2024-02-26T10:46:38;1.80;;;1.40;;
34783;SDS011;20998;51.388;7.032;2024-02-26T10:49:12;2.77;;;1.77;;
34783;SDS011;20998;51.388;7.032;2024-02-26T10:51:40;4.50;;;2.00;;
34783;SDS011;20998;51.388;7.032;2024-02-26T10:54:10;3.83;;;2.77;;
34783;SDS011;20998;51.388;7.032;2024-02-26T10:56:41;5.77;;;1.90;;
34783;SDS011;20998;51.388;7.032;2024-02-26T10:59:09;4.17;;;1.70;;
34783;SDS011;20998;51.388;7.032;2024-02-26T11:01:35;2.57;;;1.90;;
34783;SDS011;20998;51.388;7.032;2024-02-26T11:04:06;1.40;;;1.30;;
34783;SDS011;20998;51.388;7.032;2024-02-26T11:06:32;2.07;;;1.60;;
34783;SDS011;20998;51.388;7.032;2024-02-26T11:08:59;2.40;;;1.30;;
34783;SDS011;20998;51.388;7.032;2024-02-26T11:11:27;3.07;;;1.73;;
34783;SDS011;20998;51.388;7.032;2024-02-26T11:13:53;2.50;;;1.70;;
34783;SDS011;20998;51.388;7.032;2024-02-26T11:16:22;1.77;;;1.30;;
34783;SDS011;20998;51.388;7.032;2024-02-26T11:18:48;3.57;;;2.40;;
34783;SDS011;20998;51.388;7.032;2024-02-26T11:21:15;3.10;;;2.07;;
34783;SDS011;20998;51.388;7.032;2024-02-26T11:23:42;4.27;;;2.60;;
34783;SDS011;20998;51.388;7.032;2024-02-26T11:26:08;6.00;;;2.30;;
34783;SDS011;20998;51.388;7.032;2024-02-26T11:28:35;3.70;;;2.33;;
34783;SDS011;20998;51.388;7.032;2024-02-26T11:31:03;2.97;;;2.30;;
34783;SDS011;20998;51.388;7.032;2024-02-26T11:33:30;3.43;;;2.03;;
34783;SDS011;20998;51.388;7.032;2024-02-26T11:35:56;2.70;;;2.07;;
34783;SDS011;20998;51.388;7.032;2024-02-26T11:38:23;4.37;;;2.43;;
34783;SDS011;20998;51.388;7.032;2024-02-26T11:40:51;3.63;;;2.77;;
34783;SDS011;20998;51.388;7.032;2024-02-26T11:43:18;4.93;;;2.83;;
34783;SDS011;20998;51.388;7.032;2024-02-26T11:45:49;4.00;;;2.03;;
34783;SDS011;20998;51.388;7.032;2024-02-26T11:48:20;3.67;;;2.33;;
34783;SDS011;20998;51.388;7.032;2024-02-26T11:50:47;4.33;;;3.03;;
34783;SDS011;20998;51.388;7.032;2024-02-26T11:53:25;3.77;;;2.07;;
34783;SDS011;20998;51.388;7.032;2024-02-26T11:59:02;2.63;;;1.93;;
34783;SDS011;20998;51.388;7.032;2024-02-26T12:04:13;4.93;;;2.13;;
34783;SDS011;20998;51.388;7.032;2024-02-26T12:06:43;18.57;;;2.83;;
34783;SDS011;20998;51.388;7.032;2024-02-26T12:09:11;3.60;;;2.50;;
34783;SDS011;20998;51.388;7.032;2024-02-26T12:11:38;6.47;;;3.13;;
34783;SDS011;20998;51.388;7.032;2024-02-26T12:14:08;2.70;;;1.97;;
34783;SDS011;20998;51.388;7.032;2024-02-26T12:16:43;3.30;;;2.17;;
34783;SDS011;20998;51.388;7.032;2024-02-26T12:19:10;4.53;;;2.67;;
34783;SDS011;20998;51.388;7.032;2024-02-26T12:21:36;4.67;;;2.63;;
34783;SDS011;20998;51.388;7.032;2024-02-26T12:24:14;4.37;;;2.23;;
34783;SDS011;20998;51.388;7.032;2024-02-26T12:26:43;4.73;;;3.13;;
34783;SDS011;20998;51.388;7.032;2024-02-26T12:29:09;4.07;;;2.40;;
34783;SDS011;20998;51.388;7.032;2024-02-26T12:31:36;3.67;;;2.60;;
34783;SDS011;20998;51.388;7.032;2024-02-26T12:34:03;6.87;;;2.53;;
34783;SDS011;20998;51.388;7.032;2024-02-26T12:36:29;3.53;;;2.60;;
34783;SDS011;20998;51.388;7.032;2024-02-26T12:38:55;9.70;;;3.17;;
34783;SDS011;20998;51.388;7.032;2024-02-26T12:41:22;5.33;;;3.13;;
34783;SDS011;20998;51.388;7.032;2024-02-26T12:43:48;3.90;;;2.63;;
34783;SDS011;20998;51.388;7.032;2024-02-26T12:46:15;4.13;;;2.87;;
34783;SDS011;20998;51.388;7.032;2024-02-26T12:48:44;9.90;;;3.43;;
34783;SDS011;20998;51.388;7.032;2024-02-26T12:51:12;3.87;;;2.87;;
34783;SDS011;20998;51.388;7.032;2024-02-26T12:53:40;7.03;;;4.00;;
34783;SDS011;20998;51.388;7.032;2024-02-26T12:56:07;5.60;;;3.10;;
34783;SDS011;20998;51.388;7.032;2024-02-26T12:58:34;4.83;;;3.07;;
34783;SDS011;20998;51.388;7.032;2024-02-26T13:01:00;6.40;;;2.80;;
34783;SDS011;20998;51.388;7.032;2024-02-26T13:03:26;3.20;;;2.50;;
34783;SDS011;20998;51.388;7.032;2024-02-26T13:05:53;3.53;;;2.50;;
34783;SDS011;20998;51.388;7.032;2024-02-26T13:08:20;7.00;;;3.17;;
34783;SDS011;20998;51.388;7.032;2024-02-26T13:10:46;5.20;;;2.67;;
34783;SDS011;20998;51.388;7.032;2024-02-26T13:13:15;6.37;;;3.50;;
34783;SDS011;20998;51.388;7.032;2024-02-26T13:15:42;4.63;;;2.30;;
34783;SDS011;20998;51.388;7.032;2024-02-26T13:18:09;3.37;;;2.50;;
34783;SDS011;20998;51.388;7.032;2024-02-26T13:20:35;6.50;;;3.00;;
34783;SDS011;20998;51.388;7.032;2024-02-26T13:23:06;3.17;;;2.53;;
34783;SDS011;20998;51.388;7.032;2024-02-26T13:25:32;4.93;;;2.80;;
34783;SDS011;20998;51.388;7.032;2024-02-26T13:30:33;3.90;;;2.40;;
34783;SDS011;20998;51.388;7.032;2024-02-26T13:33:06;3.90;;;2.10;;
34783;SDS011;20998;51.388;7.032;2024-02-26T13:35:34;7.23;;;2.50;;
34783;SDS011;20998;51.388;7.032;2024-02-26T13:38:01;4.33;;;2.77;;
34783;SDS011;20998;51.388;7.032;2024-02-26T13:40:27;8.40;;;2.83;;
34783;SDS011;20998;51.388;7.032;2024-02-26T13:42:54;2.87;;;2.40;;
34783;SDS011;20998;51.388;7.032;2024-02-26T13:45:20;4.93;;;2.60;;
34783;SDS011;20998;51.388;7.032;2024-02-26T13:47:46;3.17;;;2.57;;
34783;SDS011;20998;51.388;7.032;2024-02-26T13:50:12;2.17;;;1.57;;
34783;SDS011;20998;51.388;7.032;2024-02-26T13:52:38;4.03;;;2.50;;
34783;SDS011;20998;51.388;7.032;2024-02-26T13:55:04;4.27;;;2.00;;
34783;SDS011;20998;51.388;7.032;2024-02-26T13:57:30;2.40;;;2.00;;
34783;SDS011;20998;51.388;7.032;2024-02-26T13:59:56;3.13;;;2.03;;
34783;SDS011;20998;51.388;7.032;2024-02-26T14:02:22;3.43;;;2.40;;
34783;SDS011;20998;51.388;7.032;2024-02-26T14:04:48;2.80;;;1.83;;
34783;SDS011;20998;51.388;7.032;2024-02-26T14:07:14;5.17;;;2.40;;
34783;SDS011;20998;51.388;7.032;2024-02-26T14:09:42;2.80;;;2.00;;
34783;SDS011;20998;51.388;7.032;2024-02-26T14:12:08;3.80;;;2.10;;
34783;SDS011;20998;51.388;7.032;2024-02-26T14:14:34;7.10;;;2.10;;
34783;SDS011;20998;51.388;7.032;2024-02-26T14:17:03;3.10;;;1.97;;
34783;SDS011;20998;51.388;7.032;2024-02-26T14:19:29;3.97;;;2.77;;
34783;SDS011;20998;51.388;7.032;2024-02-26T14:21:55;2.97;;;1.90;;
34783;SDS011;20998;51.388;7.032;2024-02-26T14:24:21;3.40;;;1.97;;
34783;SDS011;20998;51.388;7.032;2024-02-26T14:26:47;2.80;;;1.97;;
34783;SDS011;20998;51.388;7.032;2024-02-26T14:29:13;6.10;;;2.43;;
34783;SDS011;20998;51.388;7.032;2024-02-26T14:31:39;4.67;;;2.13;;
34783;SDS011;20998;51.388;7.032;2024-02-26T14:34:06;1.63;;;1.37;;
34783;SDS011;20998;51.388;7.032;2024-02-26T14:36:33;2.77;;;1.67;;
34783;SDS011;20998;51.388;7.032;2024-02-26T14:38:59;3.40;;;1.90;;
34783;SDS011;20998;51.388;7.032;2024-02-26T14:41:25;3.40;;;2.00;;
34783;SDS011;20998;51.388;7.032;2024-02-26T14:43:51;4.23;;;1.90;;
34783;SDS011;20998;51.388;7.032;2024-02-26T14:46:17;2.97;;;2.00;;
34783;SDS011;20998;51.388;7.032;2024-02-26T14:48:43;4.27;;;2.10;;
34783;SDS011;20998;51.388;7.032;2024-02-26T14:51:11;3.60;;;2.00;;
34783;SDS011;20998;51.388;7.032;2024-02-26T14:53:37;2.47;;;1.60;;